Decoded Metar for SANT (TUCUMAN in ARGENTINA) (IATA:TUC) | Meteo·Mobile Aviation Weather
aviador You're here:

SANT Decoded Metar

TUCUMAN in ARGENTINA
Report Time2018-11-21 18:00:00
UTC Time2018-11-21 18:40:56
Flight Rules vfr VFR
Wind180° at 08 kt
W.Decomp.*RWY 19: 8.0 kt HW 0.6 kt LCW
W.Rank180° ranks 2
Current wind is above 180° avg. (6.1)
Visibility9999 m
Phenomena:N/A
Clouds:Few 040 Hf
Expected CloudBase > 5,200 ft AGL from Temp-Dew spread
CeilingNone
Temp34°C (ISA +22)
Dew Point21°C (47% RH)
Heat Index37.4°C
QNH1006 hPa
Density Alt4,531 ft
Elevation1,476 ft
Report Wrong Elevation
Raw Report
METAR SANT 211800Z 18008KT 9999 FEW040 34/21 Q1006=

Extra information for SANT:More info

Metar Taf Metar & Taf Last 4 Metars F.Rules Stats Wind Profile Meteogram Temp Stats Airport Information Weather charts Add Link Nearby VenuesMetar ALERT Operation Metar Decoded Social comments